This is the latest recevied weather packets stored in our database for station/object N2PPN. If no packets are shown the sender has not sent any weather packets the latest 10 day(s).
| Time | Temp. | Humidity | Pressure | Rain* | Wind** | Luminosity | Snow |
|---|---|---|---|---|---|---|---|
| 1777299880 | 16.11° C | 47% | 1027.3 hPa | 0 mm | - | 570 W/m² | - |
| 1777299578 | 16.11° C | 47% | 1027.3 hPa | 0 mm | - | 559 W/m² | - |
| 1777299275 | 16.11° C | 47% | 1027.1 hPa | 0 mm | - | 547 W/m² | - |
| 1777298972 | 15.56° C | 51% | 1027.4 hPa | 0 mm | - | 535 W/m² | - |
| 1777298669 | 16.11° C | 50% | 1027.1 hPa | 0 mm | - | 524 W/m² | - |
| 1777298366 | 16.11° C | 49% | 1027.2 hPa | 0 mm | - | 519 W/m² | - |
| 1777298062 | 15.56° C | 52% | 1027 hPa | 0 mm | - | 505 W/m² | - |
| 1777297762 | 15.56° C | 53% | 1026.9 hPa | 0 mm | - | 492 W/m² | - |
| 1777297461 | 15.56° C | 53% | 1027 hPa | 0 mm | - | 479 W/m² | - |
| 1777296554 | 14.44° C | 60% | 1026.7 hPa | 0 mm | - | 434 W/m² | - |
| 1777295917 | 14.44° C | 64% | 1026.5 hPa | 0 mm | - | 409 W/m² | - |
| 1777295614 | 14.44° C | 65% | 1026.6 hPa | 0 mm | - | 393 W/m² | - |
| 1777295311 | 13.89° C | 67% | 1026.5 hPa | 0 mm | - | 381 W/m² | - |
| 1777294401 | 13.33° C | 69% | 1026.5 hPa | 0 mm | - | 340 W/m² | - |
| 1777294098 | 12.78° C | 70% | 1026.5 hPa | 0 mm | - | 325 W/m² | - |
| 1777293495 | 12.22° C | 71% | 1026.3 hPa | 0 mm | - | 295 W/m² | - |
| 1777293191 | 12.22° C | 70% | 1026.6 hPa | 0 mm | - | 280 W/m² | - |
| 1777292891 | 12.22° C | 70% | 1026.5 hPa | 0 mm | - | 265 W/m² | - |
| 1777292587 | 12.22° C | 71% | 1026.3 hPa | 0 mm | - | 250 W/m² | - |
| 1777292283 | 11.67° C | 73% | 1026.2 hPa | 0 mm | - | 235 W/m² | - |
| 1777291676 | 11.11° C | 76% | 1026.3 hPa | 0 mm | - | 205 W/m² | - |
| 1777291373 | 11.11° C | 76% | 1026.4 hPa | 0 mm | - | 172 W/m² | - |
| 1777289851 | 9.44° C | 81% | 1026.1 hPa | 0 mm | - | 76 W/m² | - |
| 1777289546 | 9.44° C | 83% | 1026 hPa | 0 mm | - | 73 W/m² | - |
| 1777289242 | 8.89° C | 85% | 1025.9 hPa | 0 mm | - | 68 W/m² | - |
* Rain latest hour (hover to see other rain measurements)
** Current wind speed in m/s (hover to see current wind gust speed)